Westbury, Virginia
Current Conditions -  °F | °C
As of 9:54 AM on Wednesday 22 Oct 2014 (Local Time) from KOFP Reporting Station
Light Rain Light Rain  
Wind Chill: 52°   Ceiling: 1000
Heat Index: 52°   Visibility: 9mi
Dew Point: 51°   Wind: 9mph
Humidity: 97%   Direction: 320°NW
Pressure: 29.94"   Gusts: 18mph
Location:  37.5871°N, 77.5706°W
Report Text: KOFP 221354Z AUTO 32008G16KT 300V360 9SM -RA BKN010 OVC015 11/11 A2994 RMK AO2 SLP137 P0001 T01110106
Loading
Personal Weather Stations






























Interactive Weather Map
Tropical Storm Tracking
New forecast layout! Learn more

10-Day Weather Forecast

Advertisements
Track Severe Weather on mobile